Kezdőlap
METAR-TAF:

METAR-TAF

Repülőterek :

Yap, Mikronézia

földrajzi szélesség: 09-29N, földrajzi hosszúság: 138-05E, magasság: 28 m

Jelenlegi meteorológiai megfigyelések

A jelentés 46 perccel ezelõtt készült, 19:52 UTC
Különbözõ irányokból fújó szél 4 kt
Hőmérséklet 27°C
Páratartalom 89%
Légköri nyomás 1008 hPa
Látótávolság: 19.3 km
Kevés felhő 1600 lábon
Szakadozott felhőzet 30000 lábon

METAR: PTYA 211952Z VRB04KT 12SM FEW016 BKN300 27/25 A2976 RMK SLP078 T02680249

Idő: 06:38 (20:38 UTC)

Előrejelzés

A jelentés 3 órával és 18 perccel ezelõtt készült, 17:20 UTC
Az előrejelzés 21-én 18 óra UTC és 22-én 18 óra UTC között érvényes
Kelet-északkeleti szél 9 kt
Látótávolság: 10 km
Szórványos felhőzet 1600 lábon
Szórványos felhőzet 12000 lábon
Záporok a közelben

TAF: PTYA 211720Z 2118/2218 07009KT P6SM VCSH SCT016 SCT120

Meteorológiai megfigyelések és előrejelzések több, mint 4000 repülőtéren (METAR és TAF jelentéseket).

A térképen piros és sárga pontok jelzik az elérhető meteorológiai állomásokat.

Mozgassa az egeret a pont fölött, hogy megjelenjen az állomás neve.

Azután kattintson az időjárási megfigyelések és előrejelzések megtekintéséhez.

A térkép megváltoztatása: kattintson a fekete keresztel jelölt zöld gombra ráközelítéshez, a vonallal jelölt zöld gombra távolításhoz, vagy a zöld nyilakra a szomszédos térképek eléréséhez.


METAR-TAF: